createdAt,value
2022-12-29T00:01:03.103Z,23.70
2022-12-29T00:03:30.525Z,22.40
2022-12-29T00:05:59.591Z,22.50
2022-12-29T00:08:41.021Z,30.00
2022-12-29T00:11:16.077Z,24.15
2022-12-29T00:14:04.101Z,27.05
2022-12-29T00:16:33.159Z,30.48
2022-12-29T00:19:01.174Z,25.40
2022-12-29T00:21:48.253Z,29.88
2022-12-29T00:24:28.098Z,28.23
2022-12-29T00:27:35.335Z,23.73
2022-12-29T00:30:21.160Z,28.58
2022-12-29T00:33:06.867Z,26.85
2022-12-29T00:35:47.096Z,22.52
2022-12-29T00:38:34.167Z,26.77
2022-12-29T00:41:19.973Z,23.67
2022-12-29T00:44:05.804Z,23.52
2022-12-29T00:46:34.801Z,22.45
2022-12-29T00:49:22.065Z,24.92
2022-12-29T00:51:49.781Z,24.90
2022-12-29T00:54:18.405Z,22.50
2022-12-29T00:56:49.351Z,25.63
2022-12-29T00:59:17.084Z,22.45
2022-12-29T01:01:47.260Z,22.17
2022-12-29T01:04:14.991Z,21.13
2022-12-29T01:06:43.368Z,23.05
2022-12-29T01:09:29.982Z,24.10
2022-12-29T01:11:57.762Z,23.85
2022-12-29T01:14:26.158Z,26.42
2022-12-29T01:16:54.483Z,23.13
2022-12-29T01:19:22.397Z,24.30
2022-12-29T01:21:50.008Z,35.83
2022-12-29T01:24:20.284Z,31.10
2022-12-29T01:26:48.688Z,23.95
2022-12-29T01:29:18.454Z,30.45
2022-12-29T01:31:47.479Z,26.80
2022-12-29T01:34:14.945Z,25.80
2022-12-29T01:36:42.174Z,30.83
2022-12-29T01:39:09.358Z,26.90
2022-12-29T01:41:36.623Z,27.35
2022-12-29T01:44:04.134Z,28.67
2022-12-29T01:46:49.613Z,26.90
2022-12-29T01:49:30.474Z,26.05
2022-12-29T01:52:09.134Z,28.20
2022-12-29T01:54:44.373Z,28.73
2022-12-29T01:57:21.745Z,23.33
2022-12-29T02:00:06.713Z,21.13
2022-12-29T02:02:55.689Z,21.77
2022-12-29T02:05:47.917Z,24.73
2022-12-29T02:08:15.342Z,28.73
2022-12-29T02:13:19.905Z,22.02
2022-12-29T02:16:26.015Z,23.35
2022-12-29T02:18:57.072Z,21.42
2022-12-29T02:22:04.391Z,27.50
2022-12-29T02:24:49.699Z,24.17
2022-12-29T02:27:53.258Z,18.48
2022-12-29T02:31:08.612Z,22.98
2022-12-29T02:33:47.765Z,21.60
2022-12-29T02:36:40.227Z,24.80
2022-12-29T02:39:41.895Z,25.65
2022-12-29T02:42:35.331Z,17.90
2022-12-29T02:45:17.428Z,20.60
2022-12-29T02:48:11.052Z,19.00
2022-12-29T02:51:02.459Z,21.02
2022-12-29T02:53:52.563Z,27.77
2022-12-29T02:56:20.002Z,22.10
2022-12-29T03:02:12.960Z,20.02
2022-12-29T03:05:30.722Z,21.50
2022-12-29T03:08:06.773Z,17.88
2022-12-29T03:11:07.605Z,21.35
2022-12-29T03:14:13.172Z,16.10
2022-12-29T03:16:54.993Z,20.50
2022-12-29T03:19:37.135Z,21.88
2022-12-29T03:22:28.862Z,16.70
2022-12-29T03:25:14.727Z,21.02
2022-12-29T03:27:52.584Z,23.65
2022-12-29T03:30:20.556Z,19.80
2022-12-29T03:32:56.380Z,25.92
2022-12-29T03:35:30.403Z,20.88
2022-12-29T03:38:22.440Z,19.65
2022-12-29T03:40:59.983Z,23.75
2022-12-29T03:43:28.831Z,23.88
2022-12-29T03:45:56.092Z,17.98
2022-12-29T03:48:23.536Z,15.65
2022-12-29T03:53:18.007Z,19.48
2022-12-29T03:55:45.970Z,20.33
2022-12-29T03:58:13.446Z,18.80
2022-12-29T04:00:41.567Z,22.90
2022-12-29T04:03:08.982Z,19.20
2022-12-29T04:05:36.254Z,17.25
2022-12-29T04:08:03.522Z,16.02
2022-12-29T04:10:30.664Z,20.40
2022-12-29T04:12:57.839Z,17.73
2022-12-29T04:15:25.487Z,15.82
2022-12-29T04:17:52.983Z,23.85
2022-12-29T04:23:07.689Z,18.75
2022-12-29T04:25:36.027Z,17.60
2022-12-29T04:28:03.510Z,20.15
2022-12-29T04:30:31.704Z,27.55
2022-12-29T04:33:00.042Z,25.17
2022-12-29T04:35:27.275Z,17.75
2022-12-29T04:37:54.430Z,17.27
2022-12-29T04:40:21.653Z,18.17
2022-12-29T04:42:48.955Z,22.48
2022-12-29T04:45:16.181Z,22.98
2022-12-29T04:47:44.771Z,18.60
2022-12-29T04:50:13.157Z,27.15
2022-12-29T04:52:40.457Z,20.52
2022-12-29T04:55:08.296Z,22.38
2022-12-29T04:57:35.737Z,24.00
2022-12-29T05:00:04.011Z,21.75
2022-12-29T05:02:31.367Z,30.55
2022-12-29T05:07:28.187Z,22.52
2022-12-29T05:09:55.344Z,16.98
2022-12-29T05:12:22.635Z,21.85
2022-12-29T05:14:49.813Z,18.38
2022-12-29T05:17:17.020Z,19.33
2022-12-29T05:19:44.623Z,16.85
2022-12-29T05:22:11.791Z,23.30
2022-12-29T05:24:38.981Z,22.30
2022-12-29T05:27:06.104Z,19.73
2022-12-29T05:29:33.285Z,18.38
2022-12-29T05:32:00.548Z,18.10
2022-12-29T05:34:27.682Z,17.88
2022-12-29T05:36:55.440Z,18.55
2022-12-29T05:39:22.696Z,19.40
2022-12-29T05:41:50.215Z,15.82
2022-12-29T05:44:17.406Z,15.73
2022-12-29T05:46:45.489Z,16.98
2022-12-29T05:49:12.707Z,17.27
2022-12-29T05:51:40.853Z,15.52
2022-12-29T05:54:08.051Z,14.07
2022-12-29T05:56:35.207Z,14.93
2022-12-29T05:59:02.453Z,16.40
2022-12-29T06:01:29.685Z,17.38
2022-12-29T06:03:56.987Z,20.02
2022-12-29T06:08:51.269Z,13.82
2022-12-29T06:11:18.609Z,22.02
2022-12-29T06:13:45.796Z,13.13
2022-12-29T06:16:13.168Z,21.05
2022-12-29T06:21:07.512Z,15.88
2022-12-29T06:23:35.142Z,11.05
2022-12-29T06:26:02.547Z,14.15
2022-12-29T06:30:58.510Z,14.30
2022-12-29T06:33:25.664Z,13.30
2022-12-29T06:35:52.865Z,15.32
2022-12-29T06:38:20.330Z,12.50
2022-12-29T06:43:14.644Z,14.85
2022-12-29T06:45:42.312Z,13.70
2022-12-29T06:48:09.591Z,15.07
2022-12-29T06:50:36.965Z,13.18
2022-12-29T06:53:04.407Z,13.50
2022-12-29T06:57:59.803Z,14.57
2022-12-29T07:00:27.153Z,13.82
2022-12-29T07:02:59.292Z,13.35
2022-12-29T07:05:28.852Z,13.55
2022-12-29T07:07:56.689Z,14.50
2022-12-29T07:10:24.480Z,14.40
2022-12-29T07:12:52.135Z,13.75
2022-12-29T07:15:19.462Z,14.10
2022-12-29T07:17:46.673Z,18.65
2022-12-29T07:20:13.859Z,11.73
2022-12-29T07:22:41.287Z,13.00
2022-12-29T07:27:36.225Z,11.52
2022-12-29T07:30:03.832Z,20.77
2022-12-29T07:32:34.996Z,14.43
2022-12-29T07:35:02.768Z,19.33
2022-12-29T07:37:31.196Z,15.48
2022-12-29T07:39:58.659Z,13.82
2022-12-29T07:42:25.845Z,16.33
2022-12-29T07:44:53.738Z,14.38
2022-12-29T07:47:20.887Z,14.13
2022-12-29T07:49:48.452Z,14.13
2022-12-29T07:52:15.676Z,13.15
2022-12-29T07:54:42.918Z,15.70
2022-12-29T07:57:10.238Z,14.30
2022-12-29T07:59:37.529Z,15.05
2022-12-29T08:02:04.881Z,16.58
2022-12-29T08:06:59.248Z,16.70
2022-12-29T08:09:27.393Z,18.02
2022-12-29T08:11:55.694Z,22.77
2022-12-29T08:14:24.115Z,19.33
2022-12-29T08:16:51.384Z,19.95
2022-12-29T08:19:18.644Z,16.42
2022-12-29T08:21:45.858Z,23.65
2022-12-29T08:24:13.036Z,21.17
2022-12-29T08:26:40.207Z,22.88
2022-12-29T08:29:11.013Z,21.75
2022-12-29T08:31:39.761Z,24.55
2022-12-29T08:34:07.577Z,26.33
2022-12-29T08:36:34.825Z,21.70
2022-12-29T08:39:02.116Z,24.20
2022-12-29T08:41:29.331Z,19.92
2022-12-29T08:43:57.016Z,19.23
2022-12-29T08:46:24.409Z,19.42
2022-12-29T08:51:23.001Z,19.90
2022-12-29T08:53:52.494Z,24.38
2022-12-29T08:56:19.992Z,24.95
2022-12-29T09:01:14.635Z,21.90
2022-12-29T09:06:29.802Z,20.95
2022-12-29T09:08:59.632Z,23.80
2022-12-29T09:11:27.292Z,20.90
2022-12-29T09:13:54.778Z,21.58
2022-12-29T09:18:52.170Z,20.58
2022-12-29T09:21:19.363Z,18.25
2022-12-29T09:23:46.555Z,15.95
2022-12-29T09:26:14.297Z,17.23
2022-12-29T09:28:44.495Z,21.30
2022-12-29T09:31:11.961Z,13.02
2022-12-29T09:36:07.254Z,11.95
2022-12-29T09:38:34.498Z,11.98
2022-12-29T09:41:16.619Z,11.48
2022-12-29T09:44:12.065Z,16.13
2022-12-29T09:46:47.389Z,11.85
2022-12-29T09:49:57.178Z,12.80
2022-12-29T09:52:33.201Z,10.95
2022-12-29T09:55:13.763Z,11.30
2022-12-29T09:57:47.693Z,15.98
2022-12-29T10:00:20.661Z,14.73
2022-12-29T10:03:04.986Z,12.52
2022-12-29T10:05:40.467Z,15.75
2022-12-29T10:08:38.159Z,14.75
2022-12-29T10:11:20.535Z,17.02
2022-12-29T10:14:15.685Z,12.18
2022-12-29T10:16:52.721Z,13.90
2022-12-29T10:20:06.853Z,15.40
2022-12-29T10:22:59.306Z,13.05
2022-12-29T10:25:33.597Z,12.90
2022-12-29T10:28:12.952Z,14.05
2022-12-29T10:30:42.617Z,14.82
2022-12-29T10:33:19.746Z,12.45
2022-12-29T10:35:49.330Z,20.45
2022-12-29T10:38:39.550Z,15.32
2022-12-29T10:41:39.787Z,15.30
2022-12-29T10:44:16.405Z,12.50
2022-12-29T10:46:45.291Z,11.73
2022-12-29T10:49:22.267Z,20.52
2022-12-29T10:51:56.020Z,16.25
2022-12-29T10:54:35.102Z,17.15
2022-12-29T10:57:14.949Z,13.88
2022-12-29T10:59:45.089Z,14.63
2022-12-29T11:02:13.651Z,11.60
2022-12-29T11:05:11.609Z,19.38
2022-12-29T11:07:39.429Z,13.90
2022-12-29T11:10:40.090Z,17.83
2022-12-29T11:13:36.520Z,13.32
2022-12-29T11:16:06.479Z,15.20
2022-12-29T11:19:21.242Z,14.10
2022-12-29T11:21:48.480Z,17.20
2022-12-29T11:24:33.623Z,15.05
2022-12-29T11:28:19.384Z,11.30
2022-12-29T11:31:01.299Z,10.38
2022-12-29T11:33:35.928Z,12.60
2022-12-29T11:36:40.337Z,17.42
2022-12-29T11:43:42.813Z,11.98
2022-12-29T11:46:29.900Z,12.93
2022-12-29T11:49:01.806Z,14.32
2022-12-29T11:51:46.523Z,11.98
2022-12-29T11:54:37.419Z,15.32
2022-12-29T11:57:19.860Z,13.35
2022-12-29T12:00:01.571Z,19.08
2022-12-29T12:02:58.784Z,13.45
2022-12-29T12:05:56.555Z,13.38
2022-12-29T12:08:47.614Z,14.73
2022-12-29T12:11:25.481Z,19.58
2022-12-29T12:14:13.153Z,14.07
2022-12-29T12:17:00.660Z,10.68
2022-12-29T12:19:36.301Z,12.00
2022-12-29T12:22:37.848Z,11.77
2022-12-29T12:25:22.536Z,12.15
2022-12-29T12:28:20.038Z,9.05
2022-12-29T12:30:57.447Z,9.90
2022-12-29T12:33:41.251Z,13.65
2022-12-29T12:37:00.128Z,9.30
2022-12-29T12:40:01.977Z,11.10
2022-12-29T12:42:54.701Z,12.85
2022-12-29T12:48:12.593Z,7.43
2022-12-29T12:51:17.870Z,7.78
2022-12-29T12:54:00.040Z,8.75
2022-12-29T12:57:00.570Z,9.77
2022-12-29T12:59:59.446Z,7.38
2022-12-29T13:03:35.519Z,8.77
2022-12-29T13:06:28.030Z,7.93
2022-12-29T13:09:14.200Z,5.10
2022-12-29T13:12:32.090Z,8.20
2022-12-29T13:15:27.454Z,6.05
2022-12-29T13:18:38.849Z,8.05
2022-12-29T13:21:32.555Z,6.05
2022-12-29T13:24:21.632Z,12.98
2022-12-29T13:27:17.719Z,8.50
2022-12-29T13:30:16.874Z,7.97
2022-12-29T13:35:51.167Z,7.68
2022-12-29T13:38:32.113Z,7.30
2022-12-29T13:41:10.587Z,13.40
2022-12-29T13:43:43.472Z,7.35
2022-12-29T13:46:44.287Z,6.50
2022-12-29T13:49:23.315Z,8.60
2022-12-29T13:52:15.206Z,5.60
2022-12-29T13:55:27.011Z,6.20
2022-12-29T13:58:03.530Z,3.85
2022-12-29T14:00:50.917Z,7.60
2022-12-29T14:04:15.580Z,10.65
2022-12-29T14:07:14.374Z,5.18
2022-12-29T14:09:48.985Z,9.02
2022-12-29T14:12:45.048Z,6.90
2022-12-29T14:15:13.173Z,5.75
2022-12-29T14:17:43.250Z,5.00
2022-12-29T14:21:06.820Z,6.20
2022-12-29T14:23:43.344Z,6.78
2022-12-29T14:26:35.631Z,9.52
2022-12-29T14:29:24.935Z,6.43
2022-12-29T14:32:15.297Z,9.75
2022-12-29T14:34:52.190Z,9.18
2022-12-29T14:37:34.056Z,8.93
2022-12-29T14:40:24.708Z,9.40
2022-12-29T14:42:56.886Z,5.85
2022-12-29T14:45:34.336Z,9.23
2022-12-29T14:48:01.716Z,6.10
2022-12-29T14:56:32.974Z,10.02
2022-12-29T14:59:06.860Z,9.10
2022-12-29T15:01:35.085Z,7.55
2022-12-29T15:04:18.284Z,9.05
2022-12-29T15:06:49.656Z,10.32
2022-12-29T15:09:52.331Z,9.57
2022-12-29T15:12:52.874Z,6.57
2022-12-29T15:15:31.212Z,10.88
2022-12-29T15:18:16.999Z,11.48
2022-12-29T15:20:45.571Z,11.18
2022-12-29T15:23:17.629Z,8.48
2022-12-29T15:26:09.818Z,8.80
2022-12-29T15:28:48.200Z,8.25
2022-12-29T15:31:29.454Z,9.93
2022-12-29T15:34:13.841Z,10.82
2022-12-29T15:36:43.399Z,7.68
2022-12-29T15:39:31.325Z,7.65
2022-12-29T15:42:17.863Z,17.40
2022-12-29T15:47:30.650Z,8.45
2022-12-29T15:50:24.651Z,8.88
2022-12-29T15:52:53.817Z,10.27
2022-12-29T15:55:41.535Z,12.27
2022-12-29T15:58:31.301Z,10.77
2022-12-29T16:01:02.863Z,14.75
2022-12-29T16:03:39.853Z,10.27
2022-12-29T16:06:31.688Z,9.55
2022-12-29T16:09:20.594Z,7.82
2022-12-29T16:11:56.690Z,14.25
2022-12-29T16:15:03.756Z,13.20
2022-12-29T16:17:53.638Z,14.20
2022-12-29T16:20:43.707Z,10.38
2022-12-29T16:23:27.168Z,13.32
2022-12-29T16:25:58.814Z,10.88
2022-12-29T16:28:43.553Z,11.60
2022-12-29T16:32:01.755Z,19.95
2022-12-29T16:34:48.905Z,12.23
2022-12-29T16:37:38.146Z,10.98
2022-12-29T16:40:31.911Z,15.57
2022-12-29T16:48:34.510Z,10.18
2022-12-29T16:51:20.057Z,13.13
2022-12-29T16:53:54.910Z,10.50
2022-12-29T16:56:31.140Z,12.90
2022-12-29T16:59:27.724Z,15.00
2022-12-29T17:02:03.404Z,15.18
2022-12-29T17:04:31.711Z,15.48
2022-12-29T17:06:59.195Z,14.50
2022-12-29T17:12:11.246Z,10.90
2022-12-29T17:14:54.780Z,11.52
2022-12-29T17:17:50.239Z,8.88
2022-12-29T17:20:33.308Z,8.30
2022-12-29T17:23:01.456Z,12.65
2022-12-29T17:25:38.874Z,17.30
2022-12-29T17:28:34.138Z,20.85
2022-12-29T17:31:08.457Z,15.68
2022-12-29T17:33:39.070Z,16.40
2022-12-29T17:36:07.769Z,18.08
2022-12-29T17:38:39.184Z,18.20
2022-12-29T17:41:14.967Z,14.90
2022-12-29T17:43:42.243Z,19.90
2022-12-29T17:46:10.725Z,23.42
2022-12-29T17:48:39.765Z,17.33
2022-12-29T17:51:12.467Z,16.90
2022-12-29T17:53:40.041Z,19.52
2022-12-29T17:56:11.224Z,11.02
2022-12-29T17:58:41.685Z,12.80
2022-12-29T18:01:12.849Z,13.18
2022-12-29T18:03:43.210Z,11.10
2022-12-29T18:06:13.438Z,13.38
2022-12-29T18:08:44.598Z,14.68
2022-12-29T18:11:28.427Z,13.50
2022-12-29T18:13:56.799Z,15.45
2022-12-29T18:16:25.319Z,11.82
2022-12-29T18:18:54.743Z,17.20
2022-12-29T18:21:25.371Z,13.55
2022-12-29T18:23:55.592Z,14.00
2022-12-29T18:26:28.884Z,15.48
2022-12-29T18:28:58.422Z,11.25
2022-12-29T18:31:32.454Z,16.38
2022-12-29T18:34:08.989Z,17.00
2022-12-29T18:36:36.514Z,16.27
2022-12-29T18:39:05.401Z,14.25
2022-12-29T18:42:01.352Z,15.05
2022-12-29T18:44:30.697Z,15.63
2022-12-29T18:46:58.265Z,20.13
2022-12-29T18:49:25.867Z,11.83
2022-12-29T18:51:53.341Z,15.32
2022-12-29T18:56:57.813Z,13.02
2022-12-29T18:59:26.599Z,15.65
2022-12-29T19:01:54.350Z,13.35
2022-12-29T19:04:25.529Z,24.00
2022-12-29T19:06:52.767Z,14.85
2022-12-29T19:09:20.165Z,15.98
2022-12-29T19:14:18.439Z,9.40
2022-12-29T19:16:47.893Z,11.70
2022-12-29T19:19:19.416Z,13.55
2022-12-29T19:21:47.897Z,11.07
2022-12-29T19:24:15.956Z,14.98
2022-12-29T19:26:43.336Z,15.32
2022-12-29T19:31:43.744Z,13.90
2022-12-29T19:34:16.958Z,13.98
2022-12-29T19:36:47.103Z,9.43
2022-12-29T19:39:14.669Z,8.07
2022-12-29T19:41:42.020Z,10.15
2022-12-29T19:44:11.314Z,10.15
2022-12-29T19:46:42.694Z,12.00
2022-12-29T19:49:11.062Z,9.55
2022-12-29T19:51:40.173Z,8.75
2022-12-29T19:54:08.527Z,12.63
2022-12-29T19:56:36.045Z,10.40
2022-12-29T19:59:03.414Z,10.23
2022-12-29T20:01:30.986Z,8.52
2022-12-29T20:03:58.983Z,8.68
2022-12-29T20:06:27.793Z,12.60
2022-12-29T20:08:57.236Z,12.43
2022-12-29T20:11:25.365Z,12.25
2022-12-29T20:13:54.382Z,13.07
2022-12-29T20:16:21.682Z,9.98
2022-12-29T20:18:49.620Z,64.10
2022-12-29T20:21:21.247Z,10.70
2022-12-29T20:23:51.212Z,11.07
2022-12-29T20:26:26.397Z,11.00
2022-12-29T20:28:54.899Z,10.40
2022-12-29T20:31:40.898Z,12.65
2022-12-29T20:34:09.939Z,16.75
2022-12-29T20:36:42.850Z,13.18
2022-12-29T20:39:17.687Z,10.20
2022-12-29T20:41:49.126Z,17.15
2022-12-29T20:44:23.328Z,13.55
2022-12-29T20:46:54.300Z,12.50
2022-12-29T20:49:22.464Z,11.00
2022-12-29T20:52:05.844Z,11.95
2022-12-29T20:54:39.140Z,11.70
2022-12-29T20:57:08.614Z,13.80
2022-12-29T20:59:36.275Z,11.20
2022-12-29T21:04:57.605Z,14.45
2022-12-29T21:07:21.486Z,11.55
2022-12-29T21:09:51.458Z,14.70
2022-12-29T21:12:18.856Z,11.80
2022-12-29T21:14:55.529Z,13.18
2022-12-29T21:17:23.184Z,24.77
2022-12-29T21:19:55.177Z,14.40
2022-12-29T21:22:22.659Z,12.13
2022-12-29T21:27:30.159Z,14.30
2022-12-29T21:29:59.318Z,12.70
2022-12-29T21:32:26.692Z,14.88
2022-12-29T21:34:57.084Z,11.07
2022-12-29T21:37:27.463Z,11.23
2022-12-29T21:39:58.319Z,11.00
2022-12-29T21:42:27.816Z,11.65
2022-12-29T21:45:20.751Z,13.73
2022-12-29T21:48:08.016Z,29.20
2022-12-29T21:51:03.687Z,11.18
2022-12-29T21:53:39.583Z,14.63
2022-12-29T21:56:28.432Z,11.25
2022-12-29T21:59:18.953Z,13.57
2022-12-29T22:02:05.810Z,22.10
2022-12-29T22:04:52.335Z,15.93
2022-12-29T22:07:38.508Z,9.50
2022-12-29T22:10:27.891Z,10.25
2022-12-29T22:13:00.629Z,10.45
2022-12-29T22:15:38.851Z,14.98
2022-12-29T22:18:08.363Z,9.27
2022-12-29T22:20:38.293Z,10.82
2022-12-29T22:23:06.825Z,11.88
2022-12-29T22:25:34.649Z,13.68
2022-12-29T22:28:02.880Z,9.63
2022-12-29T22:30:30.588Z,9.40
2022-12-29T22:32:59.876Z,7.88
2022-12-29T22:35:28.073Z,10.10
2022-12-29T22:37:55.783Z,7.78
2022-12-29T22:40:23.213Z,10.32
2022-12-29T22:45:18.020Z,8.38
2022-12-29T22:47:46.897Z,11.90
2022-12-29T22:50:14.239Z,9.10
2022-12-29T22:52:41.522Z,14.38
2022-12-29T22:55:09.306Z,15.20
2022-12-29T22:57:37.048Z,9.68
2022-12-29T23:00:09.689Z,9.43
2022-12-29T23:02:37.330Z,9.02
2022-12-29T23:05:06.287Z,10.77
2022-12-29T23:07:36.006Z,9.45
2022-12-29T23:10:05.673Z,13.40
2022-12-29T23:12:35.264Z,11.32
2022-12-29T23:15:02.788Z,11.45
2022-12-29T23:17:30.260Z,11.20
2022-12-29T23:22:25.160Z,10.63
2022-12-29T23:24:52.808Z,12.65
2022-12-29T23:27:20.302Z,11.27
2022-12-29T23:29:48.458Z,14.30
2022-12-29T23:32:16.121Z,14.68
2022-12-29T23:34:43.665Z,14.35
2022-12-29T23:37:11.043Z,16.33
2022-12-29T23:39:39.589Z,16.88
2022-12-29T23:42:08.579Z,15.90
2022-12-29T23:44:36.507Z,14.00
2022-12-29T23:47:04.101Z,15.38
2022-12-29T23:49:32.392Z,18.30
2022-12-29T23:51:59.744Z,13.80
2022-12-29T23:54:27.076Z,14.95
2022-12-29T23:56:56.644Z,14.05
2022-12-29T23:59:24.801Z,12.93
